Time,TemperatureF,DewpointF,PressureIn,WindDirection,WindDirectionDegrees,WindSpeedMPH,WindSpeedGustMPH,Humidity,HourlyPrecipIn,Conditions,Clouds,dailyrainin,SoftwareType,DateUTC
2013-09-30 00:03:00,73.8,63.0,29.86,West,271,1.2,1.2,69,0.00,RA,,0.00,WeatherDisplay:10.37,2013-09-29 22:03:00,
2013-09-30 00:08:00,73.9,63.5,29.85,SW,217,2.3,2.3,70,0.00,RA,,0.00,WeatherDisplay:10.37,2013-09-29 22:08:00,
2013-09-30 00:13:00,73.9,63.5,29.85,SSW,209,2.3,2.3,70,0.00,CLR,,0.00,WeatherDisplay:10.37,2013-09-29 22:13:00,
2013-09-30 00:18:00,73.7,63.3,29.85,SSW,209,2.3,2.3,70,0.00,CLR,,0.00,WeatherDisplay:10.37,2013-09-29 22:18:00,
2013-09-30 00:23:00,73.6,63.6,29.85,SSW,209,1.2,0.0,71,0.00,CLR,,0.00,WeatherDisplay:10.37,2013-09-29 22:23:00,
2013-09-30 00:28:00,73.4,63.4,29.85,SSW,205,3.5,3.5,71,0.00,CLR,,0.00,WeatherDisplay:10.37,2013-09-29 22:28:00,
2013-09-30 00:33:00,73.2,63.6,29.85,SSW,205,3.5,3.5,72,0.00,CLR,,0.00,WeatherDisplay:10.37,2013-09-29 22:33:00,
2013-09-30 00:38:00,73.1,63.5,29.85,SW,217,3.5,3.5,72,0.00,CLR,,0.00,WeatherDisplay:10.37,2013-09-29 22:38:00,
2013-09-30 00:43:00,73.4,63.8,29.85,WSW,237,4.6,4.6,72,0.00,CLR,,0.00,WeatherDisplay:10.37,2013-09-29 22:43:00,
2013-09-30 00:48:00,73.7,63.7,29.85,West,262,4.6,4.6,71,0.00,CLR,,0.00,WeatherDisplay:10.37,2013-09-29 22:48:00,
2013-09-30 00:53:00,73.6,64.0,29.85,WSW,237,3.5,3.5,72,0.00,CLR,,0.00,WeatherDisplay:10.37,2013-09-29 22:53:00,
2013-09-30 00:58:00,73.6,63.6,29.85,SSW,209,3.5,3.5,71,0.00,CLR,,0.00,WeatherDisplay:10.37,2013-09-29 22:58:00,
2013-09-30 01:03:00,73.4,63.8,29.85,SSW,209,3.5,3.5,72,0.00,CLR,,0.00,WeatherDisplay:10.37,2013-09-29 23:03:00,
2013-09-30 01:08:00,73.4,63.8,29.85,SSW,209,2.3,2.3,72,0.00,CLR,,0.00,WeatherDisplay:10.37,2013-09-29 23:08:00,
2013-09-30 01:13:00,73.5,63.9,29.85,SW,215,1.2,1.2,72,0.00,CLR,,0.00,WeatherDisplay:10.37,2013-09-29 23:13:00,
2013-09-30 01:18:00,73.3,63.7,29.84,WNW,290,2.0,2.0,72,0.00,CLR,,0.00,WeatherDisplay:10.37,2013-09-29 23:18:00,
2013-09-30 01:23:00,72.8,63.6,29.84,NE,40,3.5,3.5,73,0.00,CLR,,0.00,WeatherDisplay:10.37,2013-09-29 23:23:00,
2013-09-30 01:28:00,72.6,63.4,29.84,NE,40,1.2,1.2,73,0.00,CLR,,0.00,WeatherDisplay:10.37,2013-09-29 23:28:00,
2013-09-30 01:33:00,72.6,63.4,29.84,NE,45,1.2,0.0,73,0.00,CLR,,0.00,WeatherDisplay:10.37,2013-09-29 23:33:00,
2013-09-30 01:38:00,72.7,63.5,29.84,NE,45,0.0,0.0,73,0.00,CLR,,0.00,WeatherDisplay:10.37,2013-09-29 23:38:00,
2013-09-30 01:43:00,72.7,63.5,29.84,NE,45,0.0,0.1,73,0.00,CLR,,0.00,WeatherDisplay:10.37,2013-09-29 23:43:00,
2013-09-30 01:48:00,72.6,63.4,29.84,North,9,1.2,0.0,73,0.00,CLR,,0.00,WeatherDisplay:10.37,2013-09-29 23:48:00,
2013-09-30 01:53:00,72.4,63.3,29.84,North,9,0.0,0.0,73,0.00,CLR,,0.00,WeatherDisplay:10.37,2013-09-29 23:53:00,
2013-09-30 01:58:00,72.3,63.2,29.83,North,9,0.0,0.0,73,0.00,CLR,,0.00,WeatherDisplay:10.37,2013-09-29 23:58:00,
2013-09-30 02:03:00,72.0,63.3,29.84,East,89,2.3,2.3,74,0.00,CLR,,0.00,WeatherDisplay:10.37,2013-09-30 00:03:00,
2013-09-30 02:08:00,71.6,62.9,29.83,East,82,2.3,2.3,74,0.00,CLR,,0.00,WeatherDisplay:10.37,2013-09-30 00:08:00,
2013-09-30 02:13:00,70.8,62.9,29.84,ENE,78,2.3,2.3,76,0.00,CLR,,0.00,WeatherDisplay:10.37,2013-09-30 00:13:00,
2013-09-30 02:18:00,70.5,62.9,29.84,East,84,1.2,1.2,77,0.00,CLR,,0.00,WeatherDisplay:10.37,2013-09-30 00:18:00,
2013-09-30 02:23:00,70.4,62.8,29.83,East,84,0.0,0.0,77,0.00,CLR,,0.00,WeatherDisplay:10.37,2013-09-30 00:23:00,
2013-09-30 02:28:00,70.1,62.6,29.83,NNE,16,4.6,4.6,77,0.00,CLR,,0.00,WeatherDisplay:10.37,2013-09-30 00:28:00,
2013-09-30 02:33:00,69.5,62.7,29.83,NE,38,2.3,2.3,79,0.00,CLR,,0.00,WeatherDisplay:10.37,2013-09-30 00:33:00,
2013-09-30 02:38:00,69.3,62.5,29.83,NNE,30,2.3,2.3,79,0.00,CLR,,0.00,WeatherDisplay:10.37,2013-09-30 00:38:00,
2013-09-30 02:43:00,69.2,62.8,29.83,NE,48,1.2,0.0,80,0.00,CLR,,0.00,WeatherDisplay:10.37,2013-09-30 00:43:00,
2013-09-30 02:48:00,69.0,62.6,29.83,East,80,2.3,2.3,80,0.00,CLR,,0.00,WeatherDisplay:10.37,2013-09-30 00:48:00,
2013-09-30 02:53:00,69.0,62.6,29.83,East,87,1.2,1.2,80,0.00,CLR,,0.00,WeatherDisplay:10.37,2013-09-30 00:53:00,
2013-09-30 02:58:00,69.1,63.0,29.83,East,87,0.0,0.0,81,0.00,CLR,,0.00,WeatherDisplay:10.37,2013-09-30 00:58:00,
2013-09-30 03:03:00,69.1,62.7,29.83,NE,36,2.3,2.3,80,0.00,CLR,,0.00,WeatherDisplay:10.37,2013-09-30 01:03:00,
2013-09-30 03:08:00,68.9,62.5,29.83,NNE,23,1.2,1.2,80,0.00,CLR,,0.00,WeatherDisplay:10.37,2013-09-30 01:08:00,
2013-09-30 03:13:00,68.6,62.5,29.83,NNE,23,2.3,2.3,81,0.00,CLR,,0.00,WeatherDisplay:10.37,2013-09-30 01:13:00,
2013-09-30 03:18:00,68.6,62.9,29.83,NNE,23,0.0,0.3,82,0.00,CLR,,0.00,WeatherDisplay:10.37,2013-09-30 01:18:00,
2013-09-30 03:23:00,68.6,62.5,29.83,NNE,13,2.3,2.3,81,0.00,CLR,,0.00,WeatherDisplay:10.37,2013-09-30 01:23:00,
2013-09-30 03:28:00,68.6,62.9,29.82,NNE,13,2.3,2.3,82,0.00,CLR,,0.00,WeatherDisplay:10.37,2013-09-30 01:28:00,
2013-09-30 03:33:00,68.6,62.5,29.82,NNE,13,3.5,3.5,81,0.00,CLR,,0.00,WeatherDisplay:10.37,2013-09-30 01:33:00,
2013-09-30 03:38:00,68.3,62.6,29.82,NNE,13,1.2,1.2,82,0.00,CLR,,0.00,WeatherDisplay:10.37,2013-09-30 01:38:00,
2013-09-30 03:43:00,68.1,62.4,29.82,NE,39,3.0,3.0,82,0.00,CLR,,0.00,WeatherDisplay:10.37,2013-09-30 01:43:00,
2013-09-30 03:48:00,68.1,62.7,29.82,North,11,2.3,2.3,83,0.00,CLR,,0.00,WeatherDisplay:10.37,2013-09-30 01:48:00,
2013-09-30 03:53:00,68.1,62.4,29.82,North,11,1.2,1.2,82,0.00,CLR,,0.00,WeatherDisplay:10.37,2013-09-30 01:53:00,
2013-09-30 03:58:00,68.0,62.3,29.82,North,11,2.3,2.3,82,0.00,CLR,,0.00,WeatherDisplay:10.37,2013-09-30 01:58:00,
2013-09-30 04:03:00,67.9,62.5,29.82,North,11,2.3,2.3,83,0.00,CLR,,0.00,WeatherDisplay:10.37,2013-09-30 02:03:00,
2013-09-30 04:08:00,67.8,62.4,29.82,North,11,1.2,1.2,83,0.00,CLR,,0.00,WeatherDisplay:10.37,2013-09-30 02:08:00,
2013-09-30 04:13:00,67.9,62.5,29.82,North,11,1.2,1.2,83,0.00,CLR,,0.00,WeatherDisplay:10.37,2013-09-30 02:13:00,
2013-09-30 04:18:00,67.9,62.5,29.82,North,11,1.2,1.2,83,0.00,CLR,,0.00,WeatherDisplay:10.37,2013-09-30 02:18:00,
2013-09-30 04:23:00,67.9,62.5,29.82,North,11,0.0,0.0,83,0.00,CLR,,0.00,WeatherDisplay:10.37,2013-09-30 02:23:00,
2013-09-30 04:28:00,67.9,62.5,29.82,North,11,0.0,0.0,83,0.00,CLR,,0.00,WeatherDisplay:10.37,2013-09-30 02:28:00,
2013-09-30 04:33:00,67.9,62.5,29.82,North,11,0.0,0.0,83,0.00,CLR,,0.00,WeatherDisplay:10.37,2013-09-30 02:33:00,
2013-09-30 04:38:00,67.8,62.4,29.82,North,11,0.0,0.0,83,0.00,CLR,,0.00,WeatherDisplay:10.37,2013-09-30 02:38:00,
2013-09-30 04:43:00,67.6,62.3,29.82,North,11,0.0,0.0,83,0.00,CLR,,0.00,WeatherDisplay:10.37,2013-09-30 02:43:00,
2013-09-30 04:48:00,67.4,62.1,29.82,North,11,1.0,1.0,83,0.00,CLR,,0.00,WeatherDisplay:10.37,2013-09-30 02:48:00,
2013-09-30 04:53:00,67.3,62.6,29.82,NNE,16,1.2,1.2,85,0.00,CLR,,0.00,WeatherDisplay:10.37,2013-09-30 02:53:00,
2013-09-30 04:58:00,67.4,62.4,29.82,NW,323,0.0,0.5,84,0.00,CLR,,0.00,WeatherDisplay:10.37,2013-09-30 02:58:00,
2013-09-30 05:03:00,67.4,62.1,29.82,NW,323,1.2,1.2,83,0.00,CLR,,0.00,WeatherDisplay:10.37,2013-09-30 03:03:00,
2013-09-30 05:08:00,67.3,62.0,29.82,NW,323,0.0,0.0,83,0.00,CLR,,0.00,WeatherDisplay:10.37,2013-09-30 03:08:00,
2013-09-30 05:13:00,67.4,62.4,29.82,NW,323,0.0,0.0,84,0.00,CLR,,0.00,WeatherDisplay:10.37,2013-09-30 03:13:00,
2013-09-30 05:18:00,67.3,62.0,29.82,NW,323,0.0,0.0,83,0.00,CLR,,0.00,WeatherDisplay:10.37,2013-09-30 03:18:00,
2013-09-30 05:23:00,67.3,62.3,29.82,NW,323,0.0,0.0,84,0.00,CLR,,0.00,WeatherDisplay:10.37,2013-09-30 03:23:00,
2013-09-30 05:28:00,67.2,62.2,29.83,NNW,345,3.5,3.5,84,0.00,CLR,,0.00,WeatherDisplay:10.37,2013-09-30 03:28:00,
2013-09-30 05:33:00,67.1,62.1,29.83,NNW,346,2.0,2.0,84,0.00,CLR,,0.00,WeatherDisplay:10.37,2013-09-30 03:33:00,
2013-09-30 05:38:00,67.1,62.1,29.83,NNW,346,0.0,0.0,84,0.00,CLR,,0.00,WeatherDisplay:10.37,2013-09-30 03:38:00,
2013-09-30 05:43:00,67.2,62.2,29.83,NNW,346,1.2,0.0,84,0.00,CLR,,0.00,WeatherDisplay:10.37,2013-09-30 03:43:00,
2013-09-30 05:48:00,67.0,62.0,29.83,NNW,346,2.0,2.0,84,0.00,CLR,,0.00,WeatherDisplay:10.37,2013-09-30 03:48:00,
2013-09-30 05:53:00,66.9,61.9,29.83,NNW,346,1.0,1.0,84,0.00,CLR,,0.00,WeatherDisplay:10.37,2013-09-30 03:53:00,
2013-09-30 05:58:00,66.9,61.9,29.83,NNW,346,0.0,0.0,84,0.00,CLR,,0.00,WeatherDisplay:10.37,2013-09-30 03:58:00,
2013-09-30 06:01:00,66.8,61.8,29.83,NNW,346,0.0,0.0,84,0.00,CLR,,0.00,WeatherDisplay:10.37,2013-09-30 04:01:00,
2013-09-30 06:02:00,66.8,61.8,29.83,NNW,346,0.0,0.0,84,0.00,CLR,,0.00,WeatherDisplay:10.37,2013-09-30 04:02:00,
2013-09-30 06:03:00,66.8,61.8,29.83,NNW,346,0.0,0.0,84,0.00,CLR,,0.00,WeatherDisplay:10.37,2013-09-30 04:03:00,
2013-09-30 06:08:00,66.8,62.1,29.83,NNW,346,0.0,0.0,85,0.00,CLR,,0.00,WeatherDisplay:10.37,2013-09-30 04:08:00,
2013-09-30 06:13:00,66.8,62.1,29.83,NNW,346,1.2,1.2,85,0.00,CLR,,0.00,WeatherDisplay:10.37,2013-09-30 04:13:00,
2013-09-30 06:18:00,66.8,62.1,29.83,NNW,346,0.0,0.0,85,0.00,CLR,,0.00,WeatherDisplay:10.37,2013-09-30 04:18:00,
2013-09-30 06:23:00,66.7,61.7,29.82,NNW,346,1.2,1.2,84,0.00,CLR,,0.00,WeatherDisplay:10.37,2013-09-30 04:23:00,
2013-09-30 06:28:00,66.5,61.5,29.82,North,5,2.3,2.3,84,0.00,CLR,,0.00,WeatherDisplay:10.37,2013-09-30 04:28:00,
2013-09-30 06:33:00,66.6,61.9,29.82,ENE,59,1.2,1.2,85,0.00,CLR,,0.00,WeatherDisplay:10.37,2013-09-30 04:33:00,
2013-09-30 06:38:00,66.4,61.4,29.82,NNE,30,3.5,3.5,84,0.00,CLR,,0.00,WeatherDisplay:10.37,2013-09-30 04:38:00,
2013-09-30 06:43:00,66.3,62.0,29.82,NNE,32,1.2,1.2,86,0.00,CLR,,0.00,WeatherDisplay:10.37,2013-09-30 04:43:00,
2013-09-30 06:48:00,66.4,62.1,29.82,NNE,32,2.0,2.0,86,0.00,CLR,,0.00,WeatherDisplay:10.37,2013-09-30 04:48:00,
2013-09-30 06:53:00,66.3,62.0,29.82,NNE,26,2.3,2.3,86,0.00,CLR,,0.00,WeatherDisplay:10.37,2013-09-30 04:53:00,
2013-09-30 06:58:00,66.1,61.5,29.82,NNE,26,0.0,0.0,85,0.00,CLR,,0.00,WeatherDisplay:10.37,2013-09-30 04:58:00,
2013-09-30 07:03:00,66.1,61.8,29.83,NNE,23,0.0,0.0,86,0.00,CLR,,0.00,WeatherDisplay:10.37,2013-09-30 05:03:00,
2013-09-30 07:08:00,66.0,61.7,29.83,NNE,23,0.0,0.0,86,0.00,CLR,,0.00,WeatherDisplay:10.37,2013-09-30 05:08:00,
2013-09-30 07:13:00,66.0,61.7,29.83,NNE,23,1.2,1.2,86,0.00,CLR,,0.00,WeatherDisplay:10.37,2013-09-30 05:13:00,
2013-09-30 07:18:00,66.0,61.7,29.83,NNE,21,2.3,2.3,86,0.00,CLR,,0.00,WeatherDisplay:10.37,2013-09-30 05:18:00,
2013-09-30 07:23:00,66.0,61.7,29.83,NNE,19,2.3,2.3,86,0.00,CLR,,0.00,WeatherDisplay:10.37,2013-09-30 05:23:00,
2013-09-30 07:28:00,66.0,61.7,29.83,NNE,19,2.3,2.3,86,0.00,CLR,,0.00,WeatherDisplay:10.37,2013-09-30 05:28:00,
2013-09-30 07:33:00,66.2,61.9,29.84,NNE,19,3.5,3.5,86,0.00,CLR,,0.00,WeatherDisplay:10.37,2013-09-30 05:33:00,
2013-09-30 07:38:00,66.2,61.9,29.84,NNE,19,2.3,2.3,86,0.00,CLR,,0.00,WeatherDisplay:10.37,2013-09-30 05:38:00,
2013-09-30 07:43:00,66.3,62.0,29.84,NNE,19,1.2,1.2,86,0.00,CLR,,0.00,WeatherDisplay:10.37,2013-09-30 05:43:00,
2013-09-30 07:48:00,66.5,61.8,29.84,NNE,19,0.0,0.0,85,0.00,CLR,,0.00,WeatherDisplay:10.37,2013-09-30 05:48:00,
2013-09-30 07:53:00,66.6,61.6,29.84,NNE,19,0.0,0.0,84,0.00,CLR,,0.00,WeatherDisplay:10.37,2013-09-30 05:53:00,
2013-09-30 07:58:00,66.6,61.6,29.84,NNE,19,1.2,1.2,84,0.00,CLR,,0.00,WeatherDisplay:10.37,2013-09-30 05:58:00,
2013-09-30 08:03:00,66.6,61.6,29.84,NNE,19,2.3,2.3,84,0.00,CLR,,0.00,WeatherDisplay:10.37,2013-09-30 06:03:00,
2013-09-30 08:08:00,66.5,61.5,29.84,NNE,19,3.5,3.5,84,0.00,CLR,,0.00,WeatherDisplay:10.37,2013-09-30 06:08:00,
2013-09-30 08:13:00,66.6,61.9,29.85,NNE,19,2.3,2.3,85,0.00,CLR,,0.00,WeatherDisplay:10.37,2013-09-30 06:13:00,
2013-09-30 08:18:00,66.9,62.2,29.84,NNE,19,0.0,0.0,85,0.00,CLR,,0.00,WeatherDisplay:10.37,2013-09-30 06:18:00,
2013-09-30 08:23:00,67.2,62.2,29.84,NNE,19,0.0,0.0,84,0.00,CLR,,0.00,WeatherDisplay:10.37,2013-09-30 06:23:00,
2013-09-30 08:28:00,67.5,62.5,29.84,NNE,19,0.0,0.0,84,0.00,CLR,,0.00,WeatherDisplay:10.37,2013-09-30 06:28:00,
2013-09-30 08:33:00,67.7,62.7,29.84,NNE,19,0.0,0.0,84,0.00,CLR,,0.00,WeatherDisplay:10.37,2013-09-30 06:33:00,
2013-09-30 08:38:00,67.6,62.6,29.84,NNE,19,0.0,0.1,84,0.00,CLR,,0.00,WeatherDisplay:10.37,2013-09-30 06:38:00,
2013-09-30 08:43:00,67.4,62.4,29.84,NNE,19,1.2,1.2,84,0.00,CLR,,0.00,WeatherDisplay:10.37,2013-09-30 06:43:00,
2013-09-30 08:48:00,67.2,62.5,29.84,NNE,19,0.0,0.0,85,0.00,CLR,,0.00,WeatherDisplay:10.37,2013-09-30 06:48:00,
2013-09-30 08:53:00,67.5,62.8,29.84,NNE,30,1.2,1.2,85,0.00,CLR,,0.00,WeatherDisplay:10.37,2013-09-30 06:53:00,
2013-09-30 08:58:00,68.0,63.7,29.84,NE,38,0.0,0.0,86,0.00,CLR,,0.00,WeatherDisplay:10.37,2013-09-30 06:58:00,
2013-09-30 09:03:00,68.9,63.9,29.84,NE,38,0.0,0.0,84,0.00,CLR,,0.00,WeatherDisplay:10.37,2013-09-30 07:03:00,
2013-09-30 09:08:00,69.6,63.9,29.84,NE,38,0.0,0.0,82,0.00,CLR,,0.00,WeatherDisplay:10.37,2013-09-30 07:08:00,
2013-09-30 09:13:00,70.1,63.6,29.84,NE,38,1.2,1.2,80,0.00,CLR,,0.00,WeatherDisplay:10.37,2013-09-30 07:13:00,
2013-09-30 09:18:00,70.4,63.9,29.84,NE,38,0.0,0.0,80,0.00,CLR,,0.00,WeatherDisplay:10.37,2013-09-30 07:18:00,
2013-09-30 09:23:00,70.6,63.8,29.84,NE,38,0.0,0.0,79,0.00,CLR,,0.00,WeatherDisplay:10.37,2013-09-30 07:23:00,
2013-09-30 09:28:00,71.0,64.2,29.85,NE,38,0.0,0.0,79,0.00,CLR,,0.00,WeatherDisplay:10.37,2013-09-30 07:28:00,
2013-09-30 09:33:00,71.5,64.3,29.84,NNE,22,1.2,1.2,78,0.00,CLR,,0.00,WeatherDisplay:10.37,2013-09-30 07:33:00,
2013-09-30 09:38:00,72.0,65.1,29.85,WNW,292,3.5,3.5,79,0.00,CLR,,0.00,WeatherDisplay:10.37,2013-09-30 07:38:00,
2013-09-30 09:43:00,73.1,65.8,29.84,WSW,242,4.0,4.0,78,0.00,CLR,,0.00,WeatherDisplay:10.37,2013-09-30 07:43:00,
2013-09-30 09:48:00,74.4,66.3,29.84,SW,226,9.2,9.2,76,0.00,CLR,,0.00,WeatherDisplay:10.37,2013-09-30 07:48:00,
2013-09-30 09:53:00,75.1,65.9,29.84,West,267,10.4,10.4,73,0.00,CLR,,0.00,WeatherDisplay:10.37,2013-09-30 07:53:00,
2013-09-30 09:58:00,75.6,65.5,29.84,WSW,248,5.8,5.8,71,0.00,CLR,,0.00,WeatherDisplay:10.37,2013-09-30 07:58:00,
2013-09-30 10:03:00,75.9,65.4,29.84,West,265,10.4,10.4,70,0.00,CLR,,0.00,WeatherDisplay:10.37,2013-09-30 08:03:00,
2013-09-30 10:08:00,76.2,65.3,29.84,WSW,254,5.8,5.8,69,0.00,CLR,,0.00,WeatherDisplay:10.37,2013-09-30 08:08:00,
2013-09-30 10:13:00,76.4,65.1,29.84,West,259,9.2,9.2,68,0.00,CLR,,0.00,WeatherDisplay:10.37,2013-09-30 08:13:00,
2013-09-30 10:18:00,76.6,64.4,29.84,West,259,11.5,11.5,66,0.00,CLR,,0.00,WeatherDisplay:10.37,2013-09-30 08:18:00,
2013-09-30 10:23:00,76.9,64.7,29.84,West,263,8.1,8.1,66,0.00,CLR,,0.00,WeatherDisplay:10.37,2013-09-30 08:23:00,
2013-09-30 10:28:00,77.2,64.1,29.84,West,266,10.4,10.4,64,0.00,CLR,,0.00,WeatherDisplay:10.37,2013-09-30 08:28:00,
2013-09-30 10:33:00,77.4,64.3,29.84,WSW,250,9.2,9.2,64,0.00,CLR,,0.00,WeatherDisplay:10.37,2013-09-30 08:33:00,
2013-09-30 10:38:00,77.8,64.2,29.84,WSW,254,7.0,7.0,63,0.00,CLR,,0.00,WeatherDisplay:10.37,2013-09-30 08:38:00,
2013-09-30 10:43:00,78.1,64.0,29.85,WSW,237,8.1,8.1,62,0.00,CLR,,0.00,WeatherDisplay:10.37,2013-09-30 08:43:00,
2013-09-30 10:48:00,78.3,63.7,29.85,SW,230,8.1,8.1,61,0.00,CLR,,0.00,WeatherDisplay:10.37,2013-09-30 08:48:00,
2013-09-30 10:53:00,78.1,63.6,29.85,WSW,258,7.0,7.0,61,0.00,CLR,,0.00,WeatherDisplay:10.37,2013-09-30 08:53:00,
2013-09-30 10:58:00,78.2,63.6,29.85,West,270,6.9,6.9,61,0.00,CLR,,0.00,WeatherDisplay:10.37,2013-09-30 08:58:00,
2013-09-30 11:03:00,78.4,63.8,29.85,WSW,255,8.1,8.1,61,0.00,CLR,,0.00,WeatherDisplay:10.37,2013-09-30 09:03:00,
2013-09-30 11:08:00,78.4,63.8,29.85,SW,222,11.5,11.5,61,0.00,CLR,,0.00,WeatherDisplay:10.37,2013-09-30 09:08:00,
2013-09-30 11:13:00,78.0,64.4,29.85,WSW,240,8.1,8.1,63,0.00,CLR,,0.00,WeatherDisplay:10.37,2013-09-30 09:13:00,
2013-09-30 11:18:00,78.3,65.1,29.84,SW,229,11.5,11.5,64,0.00,CLR,,0.00,WeatherDisplay:10.37,2013-09-30 09:18:00,
2013-09-30 11:23:00,78.7,64.1,29.85,SW,216,11.5,11.5,61,0.00,CLR,,0.00,WeatherDisplay:10.37,2013-09-30 09:23:00,
2013-09-30 11:28:00,78.7,65.0,29.85,WSW,249,11.5,11.5,63,0.00,CLR,,0.00,WeatherDisplay:10.37,2013-09-30 09:28:00,
2013-09-30 11:33:00,79.0,65.3,29.85,WSW,237,11.5,11.5,63,0.00,CLR,,0.00,WeatherDisplay:10.37,2013-09-30 09:33:00,
2013-09-30 11:38:00,78.4,63.8,29.85,SW,229,11.5,11.5,61,0.00,CLR,,0.00,WeatherDisplay:10.37,2013-09-30 09:38:00,
2013-09-30 11:43:00,78.6,63.6,29.85,West,260,11.5,11.5,60,0.00,CLR,,0.00,WeatherDisplay:10.37,2013-09-30 09:43:00,
2013-09-30 11:48:00,78.9,63.8,29.85,WSW,254,9.2,9.2,60,0.00,CLR,,0.00,WeatherDisplay:10.37,2013-09-30 09:48:00,
2013-09-30 11:53:00,79.0,62.5,29.85,WSW,240,12.7,12.7,57,0.00,CLR,,0.00,WeatherDisplay:10.37,2013-09-30 09:53:00,
2013-09-30 11:58:00,79.1,62.6,29.85,WSW,252,12.7,12.7,57,0.00,CLR,,0.00,WeatherDisplay:10.37,2013-09-30 09:58:00,
2013-09-30 12:03:00,79.2,62.1,29.85,West,280,11.5,11.5,56,0.00,CLR,,0.00,WeatherDisplay:10.37,2013-09-30 10:03:00,
2013-09-30 12:08:00,79.1,61.5,29.85,WSW,257,12.7,12.7,55,0.00,CLR,,0.00,WeatherDisplay:10.37,2013-09-30 10:08:00,
2013-09-30 12:13:00,79.3,62.2,29.85,WSW,248,10.4,10.4,56,0.00,CLR,,0.00,WeatherDisplay:10.37,2013-09-30 10:13:00,
2013-09-30 12:18:00,79.5,62.9,29.85,South,190,11.5,11.5,57,0.00,CLR,,0.00,WeatherDisplay:10.37,2013-09-30 10:18:00,
2013-09-30 12:23:00,79.4,62.8,29.84,WSW,248,9.2,9.2,57,0.00,CLR,,0.00,WeatherDisplay:10.37,2013-09-30 10:23:00,
2013-09-30 12:28:00,79.6,62.5,29.84,West,259,11.5,11.5,56,0.00,CLR,,0.00,WeatherDisplay:10.37,2013-09-30 10:28:00,
2013-09-30 12:33:00,80.1,62.5,29.85,SW,226,11.5,11.5,55,0.00,CLR,,0.00,WeatherDisplay:10.37,2013-09-30 10:33:00,
2013-09-30 12:38:00,79.9,63.3,29.84,SW,232,9.2,9.2,57,0.00,CLR,,0.00,WeatherDisplay:10.37,2013-09-30 10:38:00,
2013-09-30 12:43:00,79.8,62.2,29.85,WSW,251,12.7,12.7,55,0.00,CLR,,0.00,WeatherDisplay:10.37,2013-09-30 10:43:00,
2013-09-30 12:48:00,79.3,61.2,29.85,WSW,244,12.7,12.7,54,0.00,CLR,,0.00,WeatherDisplay:10.37,2013-09-30 10:48:00,
2013-09-30 12:53:00,79.6,61.0,29.85,SW,234,11.0,11.0,53,0.00,CLR,,0.00,WeatherDisplay:10.37,2013-09-30 10:53:00,
2013-09-30 12:58:00,80.2,62.0,29.84,West,261,13.8,13.8,54,0.00,CLR,,0.00,WeatherDisplay:10.37,2013-09-30 10:58:00,
2013-09-30 13:03:00,80.5,60.7,29.84,SW,232,15.0,15.0,51,0.00,CLR,,0.00,WeatherDisplay:10.37,2013-09-30 11:03:00,
2013-09-30 13:08:00,80.4,60.1,29.84,WNW,292,13.8,13.8,50,0.00,CLR,,0.00,WeatherDisplay:10.37,2013-09-30 11:08:00,
2013-09-30 13:13:00,80.7,61.4,29.84,West,269,11.5,11.5,52,0.00,CLR,,0.00,WeatherDisplay:10.37,2013-09-30 11:13:00,
2013-09-30 13:18:00,80.5,62.3,29.84,SW,228,11.5,11.5,54,0.00,CLR,,0.00,WeatherDisplay:10.37,2013-09-30 11:18:00,
2013-09-30 13:23:00,80.4,62.2,29.84,West,269,15.0,15.0,54,0.00,CLR,,0.00,WeatherDisplay:10.37,2013-09-30 11:23:00,
2013-09-30 13:28:00,80.5,62.8,29.84,WSW,248,11.5,11.5,55,0.00,CLR,,0.00,WeatherDisplay:10.37,2013-09-30 11:28:00,
2013-09-30 13:33:00,80.4,62.8,29.84,SW,236,11.5,11.5,55,0.00,CLR,,0.00,WeatherDisplay:10.37,2013-09-30 11:33:00,
2013-09-30 13:38:00,80.3,62.1,29.84,WSW,248,13.8,13.8,54,0.00,CLR,,0.00,WeatherDisplay:10.37,2013-09-30 11:38:00,
2013-09-30 13:43:00,80.6,62.9,29.84,SSW,211,12.7,12.7,55,0.00,CLR,,0.00,WeatherDisplay:10.37,2013-09-30 11:43:00,
2013-09-30 13:48:00,80.5,62.8,29.83,WNW,298,15.0,15.0,55,0.00,CLR,,0.00,WeatherDisplay:10.37,2013-09-30 11:48:00,
2013-09-30 13:53:00,80.6,64.0,29.83,SW,225,12.7,12.7,57,0.00,CLR,,0.00,WeatherDisplay:10.37,2013-09-30 11:53:00,
2013-09-30 13:58:00,80.5,62.8,29.83,WSW,244,13.8,13.8,55,0.00,CLR,,0.00,WeatherDisplay:10.37,2013-09-30 11:58:00,
2013-09-30 14:03:00,80.4,62.2,29.83,WSW,254,11.5,11.5,54,0.00,CLR,,0.00,WeatherDisplay:10.37,2013-09-30 12:03:00,
2013-09-30 14:08:00,80.2,62.6,29.82,SW,222,15.0,15.0,55,0.00,CLR,,0.00,WeatherDisplay:10.37,2013-09-30 12:08:00,
2013-09-30 14:13:00,80.6,61.9,29.82,WSW,244,13.0,13.0,53,0.00,CLR,,0.00,WeatherDisplay:10.37,2013-09-30 12:13:00,
2013-09-30 14:18:00,80.7,62.5,29.82,West,267,16.1,16.1,54,0.00,CLR,,0.00,WeatherDisplay:10.37,2013-09-30 12:18:00,
2013-09-30 14:23:00,80.8,62.1,29.82,WSW,247,18.4,18.4,53,0.00,CLR,,0.00,WeatherDisplay:10.37,2013-09-30 12:23:00,
2013-09-30 14:28:00,80.7,64.1,29.82,West,263,17.3,17.3,57,0.00,CLR,,0.00,WeatherDisplay:10.37,2013-09-30 12:28:00,
2013-09-30 14:33:00,80.7,64.1,29.82,WNW,282,15.0,15.0,57,0.00,CLR,,0.00,WeatherDisplay:10.37,2013-09-30 12:33:00,
2013-09-30 14:38:00,80.7,64.1,29.82,West,263,13.8,13.8,57,0.00,CLR,,0.00,WeatherDisplay:10.37,2013-09-30 12:38:00,
2013-09-30 14:43:00,80.7,63.5,29.82,WSW,247,17.3,17.3,56,0.00,CLR,,0.00,WeatherDisplay:10.37,2013-09-30 12:43:00,
2013-09-30 14:48:00,80.6,64.5,29.82,WSW,250,15.0,15.0,58,0.00,CLR,,0.00,WeatherDisplay:10.37,2013-09-30 12:48:00,
2013-09-30 14:53:00,80.5,63.9,29.82,SW,232,11.5,11.5,57,0.00,CLR,,0.00,WeatherDisplay:10.37,2013-09-30 12:53:00,
2013-09-30 14:58:00,80.7,64.1,29.82,WSW,244,11.5,11.5,57,0.00,CLR,,0.00,WeatherDisplay:10.37,2013-09-30 12:58:00,
2013-09-30 15:03:00,80.8,64.1,29.82,West,259,15.0,15.0,57,0.00,CLR,,0.00,WeatherDisplay:10.37,2013-09-30 13:03:00,
2013-09-30 15:08:00,80.9,63.7,29.82,SW,236,11.5,11.5,56,0.00,CLR,,0.00,WeatherDisplay:10.37,2013-09-30 13:08:00,
2013-09-30 15:13:00,80.6,64.0,29.82,WSW,246,15.0,15.0,57,0.00,CLR,,0.00,WeatherDisplay:10.37,2013-09-30 13:13:00,
2013-09-30 15:18:00,80.2,63.6,29.81,SW,236,13.8,13.8,57,0.00,CLR,,0.00,WeatherDisplay:10.37,2013-09-30 13:18:00,
2013-09-30 15:23:00,79.9,62.8,29.81,SSW,212,15.0,15.0,56,0.00,CLR,,0.00,WeatherDisplay:10.37,2013-09-30 13:23:00,
2013-09-30 15:28:00,79.8,63.7,29.81,WNW,284,12.7,12.7,58,0.00,CLR,,0.00,WeatherDisplay:10.37,2013-09-30 13:28:00,
2013-09-30 15:33:00,79.7,63.6,29.81,WSW,238,11.5,11.5,58,0.00,CLR,,0.00,WeatherDisplay:10.37,2013-09-30 13:33:00,
2013-09-30 15:38:00,79.6,63.5,29.81,West,266,11.5,11.5,58,0.00,CLR,,0.00,WeatherDisplay:10.37,2013-09-30 13:38:00,
2013-09-30 15:43:00,79.6,64.0,29.81,SW,234,9.2,9.2,59,0.00,CLR,,0.00,WeatherDisplay:10.37,2013-09-30 13:43:00,
2013-09-30 15:48:00,79.4,64.3,29.81,SW,219,8.1,8.1,60,0.00,CLR,,0.00,WeatherDisplay:10.37,2013-09-30 13:48:00,
2013-09-30 15:53:00,79.7,64.6,29.81,West,265,9.2,9.2,60,0.00,CLR,,0.00,WeatherDisplay:10.37,2013-09-30 13:53:00,
2013-09-30 15:58:00,79.4,64.8,29.81,WSW,255,9.2,9.2,61,0.00,CLR,,0.00,WeatherDisplay:10.37,2013-09-30 13:58:00,
2013-09-30 16:03:00,79.3,64.7,29.81,SW,234,11.5,11.5,61,0.00,CLR,,0.00,WeatherDisplay:10.37,2013-09-30 14:03:00,
2013-09-30 16:08:00,79.2,64.6,29.81,SW,236,16.1,16.1,61,0.00,CLR,,0.00,WeatherDisplay:10.37,2013-09-30 14:08:00,
2013-09-30 16:13:00,79.3,65.1,29.81,SW,234,8.0,8.0,62,0.00,CLR,,0.00,WeatherDisplay:10.37,2013-09-30 14:13:00,
2013-09-30 16:18:00,79.2,64.6,29.81,SW,229,12.0,12.0,61,0.00,CLR,,0.00,WeatherDisplay:10.37,2013-09-30 14:18:00,
2013-09-30 16:23:00,79.0,64.4,29.81,West,259,13.8,13.8,61,0.00,CLR,,0.00,WeatherDisplay:10.37,2013-09-30 14:23:00,
2013-09-30 16:28:00,79.0,64.9,29.81,WSW,248,12.7,12.7,62,0.00,CLR,,0.00,WeatherDisplay:10.37,2013-09-30 14:28:00,
2013-09-30 16:33:00,78.9,64.3,29.81,West,279,12.7,12.7,61,0.00,CLR,,0.00,WeatherDisplay:10.37,2013-09-30 14:33:00,
2013-09-30 16:38:00,78.6,64.0,29.81,West,278,18.4,18.4,61,0.00,CLR,,0.00,WeatherDisplay:10.37,2013-09-30 14:38:00,
2013-09-30 16:43:00,78.7,64.1,29.81,WSW,247,16.1,16.1,61,0.00,CLR,,0.00,WeatherDisplay:10.37,2013-09-30 14:43:00,
2013-09-30 16:48:00,78.5,64.4,29.81,West,261,12.0,12.0,62,0.00,CLR,,0.00,WeatherDisplay:10.37,2013-09-30 14:48:00,
2013-09-30 16:53:00,78.1,64.5,29.81,West,263,18.4,18.4,63,0.00,CLR,,0.00,WeatherDisplay:10.37,2013-09-30 14:53:00,
2013-09-30 16:58:00,77.9,65.2,29.81,WSW,254,13.8,13.8,65,0.00,CLR,,0.00,WeatherDisplay:10.37,2013-09-30 14:58:00,
2013-09-30 17:03:00,77.6,64.5,29.81,West,263,15.0,15.0,64,0.00,CLR,,0.00,WeatherDisplay:10.37,2013-09-30 15:03:00,
2013-09-30 17:08:00,77.7,64.5,29.81,West,269,18.4,18.4,64,0.00,CLR,,0.00,WeatherDisplay:10.37,2013-09-30 15:08:00,
2013-09-30 17:13:00,77.9,64.3,29.81,WSW,254,12.7,12.7,63,0.00,CLR,,0.00,WeatherDisplay:10.37,2013-09-30 15:13:00,
2013-09-30 17:18:00,78.1,64.5,29.81,SW,222,13.8,13.8,63,0.00,CLR,,0.00,WeatherDisplay:10.37,2013-09-30 15:18:00,
2013-09-30 17:23:00,78.5,64.9,29.81,WNW,284,13.8,13.8,63,0.00,CLR,,0.00,WeatherDisplay:10.37,2013-09-30 15:23:00,
2013-09-30 17:28:00,78.9,64.8,29.82,WSW,241,15.0,15.0,62,0.00,CLR,,0.00,WeatherDisplay:10.37,2013-09-30 15:28:00,
2013-09-30 17:33:00,78.3,65.1,29.81,West,265,13.8,13.8,64,0.00,CLR,,0.00,WeatherDisplay:10.37,2013-09-30 15:33:00,
2013-09-30 17:38:00,78.5,64.9,29.81,West,277,13.8,13.8,63,0.00,CLR,,0.00,WeatherDisplay:10.37,2013-09-30 15:38:00,
2013-09-30 17:43:00,79.1,64.5,29.81,WSW,240,12.7,12.7,61,0.00,CLR,,0.00,WeatherDisplay:10.37,2013-09-30 15:43:00,
2013-09-30 17:48:00,79.1,64.5,29.81,West,270,13.8,13.8,61,0.00,CLR,,0.00,WeatherDisplay:10.37,2013-09-30 15:48:00,
2013-09-30 17:53:00,79.1,65.0,29.82,South,190,16.1,16.1,62,0.00,CLR,,0.00,WeatherDisplay:10.37,2013-09-30 15:53:00,
2013-09-30 17:58:00,79.2,65.1,29.81,WSW,258,12.7,12.7,62,0.00,CLR,,0.00,WeatherDisplay:10.37,2013-09-30 15:58:00,
2013-09-30 18:03:00,79.3,65.1,29.81,WSW,247,8.0,8.5,62,0.00,CLR,,0.00,WeatherDisplay:10.37,2013-09-30 16:03:00,
2013-09-30 18:08:00,79.2,65.1,29.81,WNW,287,9.2,9.2,62,0.00,CLR,,0.00,WeatherDisplay:10.37,2013-09-30 16:08:00,
2013-09-30 18:13:00,79.2,64.6,29.81,WSW,246,9.2,9.2,61,0.00,CLR,,0.00,WeatherDisplay:10.37,2013-09-30 16:13:00,
2013-09-30 18:18:00,78.9,64.3,29.81,WSW,254,11.5,11.5,61,0.00,CLR,,0.00,WeatherDisplay:10.37,2013-09-30 16:18:00,
2013-09-30 18:23:00,78.9,64.8,29.81,West,273,10.4,10.4,62,0.00,CLR,,0.00,WeatherDisplay:10.37,2013-09-30 16:23:00,
2013-09-30 18:28:00,79.0,64.9,29.81,West,261,8.1,8.1,62,0.00,CLR,,0.00,WeatherDisplay:10.37,2013-09-30 16:28:00,
2013-09-30 18:33:00,79.0,65.3,29.82,WSW,253,9.2,9.2,63,0.00,CLR,,0.00,WeatherDisplay:10.37,2013-09-30 16:33:00,
2013-09-30 18:38:00,78.9,65.2,29.82,WSW,258,10.4,10.4,63,0.00,CLR,,0.00,WeatherDisplay:10.37,2013-09-30 16:38:00,
2013-09-30 18:43:00,78.9,65.2,29.82,West,270,9.2,9.2,63,0.00,CLR,,0.00,WeatherDisplay:10.37,2013-09-30 16:43:00,
2013-09-30 18:48:00,78.7,65.0,29.82,West,266,10.4,10.4,63,0.00,CLR,,0.00,WeatherDisplay:10.37,2013-09-30 16:48:00,
2013-09-30 18:53:00,78.5,64.9,29.82,WSW,244,12.7,12.7,63,0.00,CLR,,0.00,WeatherDisplay:10.37,2013-09-30 16:53:00,
2013-09-30 18:58:00,78.3,65.1,29.83,West,263,10.4,10.4,64,0.00,CLR,,0.00,WeatherDisplay:10.37,2013-09-30 16:58:00,
2013-09-30 19:03:00,78.3,65.6,29.83,West,269,8.1,8.1,65,0.00,CLR,,0.00,WeatherDisplay:10.37,2013-09-30 17:03:00,
2013-09-30 19:08:00,78.3,65.6,29.83,West,265,7.0,7.0,65,0.00,CLR,,0.00,WeatherDisplay:10.37,2013-09-30 17:08:00,
2013-09-30 19:13:00,78.0,65.3,29.83,WSW,250,8.1,8.1,65,0.00,CLR,,0.00,WeatherDisplay:10.37,2013-09-30 17:13:00,
2013-09-30 19:18:00,77.6,64.9,29.83,WSW,257,11.5,11.5,65,0.00,CLR,,0.00,WeatherDisplay:10.37,2013-09-30 17:18:00,
2013-09-30 19:23:00,77.3,65.5,29.83,West,271,8.1,8.1,67,0.00,CLR,,0.00,WeatherDisplay:10.37,2013-09-30 17:23:00,
2013-09-30 19:28:00,77.1,65.3,29.83,WNW,286,8.1,8.1,67,0.00,CLR,,0.00,WeatherDisplay:10.37,2013-09-30 17:28:00,
2013-09-30 19:33:00,77.0,65.2,29.83,West,277,9.2,9.2,67,0.00,CLR,,0.00,WeatherDisplay:10.37,2013-09-30 17:33:00,
2013-09-30 19:38:00,76.8,65.0,29.84,West,275,8.0,8.0,67,0.00,CLR,,0.00,WeatherDisplay:10.37,2013-09-30 17:38:00,
2013-09-30 19:43:00,76.7,65.3,29.84,West,276,6.9,6.9,68,0.00,CLR,,0.00,WeatherDisplay:10.37,2013-09-30 17:43:00,
2013-09-30 19:48:00,76.6,65.2,29.84,West,278,5.8,5.8,68,0.00,CLR,,0.00,WeatherDisplay:10.37,2013-09-30 17:48:00,
2013-09-30 19:53:00,76.5,65.1,29.84,West,259,3.5,3.5,68,0.00,CLR,,0.00,WeatherDisplay:10.37,2013-09-30 17:53:00,
2013-09-30 19:58:00,76.4,65.9,29.84,West,259,4.6,4.6,70,0.00,CLR,,0.00,WeatherDisplay:10.37,2013-09-30 17:58:00,
2013-09-30 20:03:00,76.3,66.2,29.85,West,267,6.0,6.0,71,0.00,CLR,,0.00,WeatherDisplay:10.37,2013-09-30 18:03:00,
2013-09-30 20:08:00,76.2,66.1,29.85,West,262,5.8,5.8,71,0.00,CLR,,0.00,WeatherDisplay:10.37,2013-09-30 18:08:00,
2013-09-30 20:13:00,76.0,66.3,29.85,WSW,246,3.5,3.5,72,0.00,CLR,,0.00,WeatherDisplay:10.37,2013-09-30 18:13:00,
2013-09-30 20:18:00,75.9,66.2,29.85,West,279,4.6,4.6,72,0.00,CLR,,0.00,WeatherDisplay:10.37,2013-09-30 18:18:00,
2013-09-30 20:23:00,75.8,66.1,29.85,West,268,4.6,4.6,72,0.00,CLR,,0.00,WeatherDisplay:10.37,2013-09-30 18:23:00,
2013-09-30 20:28:00,75.7,66.0,29.85,WSW,252,5.8,5.8,72,0.00,CLR,,0.00,WeatherDisplay:10.37,2013-09-30 18:28:00,
2013-09-30 20:33:00,75.7,66.4,29.85,WSW,255,4.0,4.0,73,0.00,CLR,,0.00,WeatherDisplay:10.37,2013-09-30 18:33:00,
2013-09-30 20:38:00,75.5,66.2,29.86,WSW,257,6.0,6.0,73,0.00,CLR,,0.00,WeatherDisplay:10.37,2013-09-30 18:38:00,
2013-09-30 20:43:00,75.5,66.6,29.86,SW,233,8.0,8.0,74,0.00,CLR,,0.00,WeatherDisplay:10.37,2013-09-30 18:43:00,
2013-09-30 20:48:00,75.4,66.5,29.86,West,277,6.9,6.9,74,0.00,CLR,,0.00,WeatherDisplay:10.37,2013-09-30 18:48:00,
2013-09-30 20:53:00,75.3,66.4,29.86,West,270,10.4,10.4,74,0.00,CLR,,0.00,WeatherDisplay:10.37,2013-09-30 18:53:00,
2013-09-30 20:58:00,75.2,66.3,29.86,West,274,6.9,6.9,74,0.00,CLR,,0.00,WeatherDisplay:10.37,2013-09-30 18:58:00,
2013-09-30 21:03:00,75.2,66.3,29.86,West,279,4.6,4.6,74,0.00,CLR,,0.00,WeatherDisplay:10.37,2013-09-30 19:03:00,
2013-09-30 21:08:00,75.1,65.9,29.86,WNW,285,2.3,2.3,73,0.00,CLR,,0.00,WeatherDisplay:10.37,2013-09-30 19:08:00,
2013-09-30 21:13:00,75.0,66.1,29.87,WNW,298,2.3,2.3,74,0.00,CLR,,0.00,WeatherDisplay:10.37,2013-09-30 19:13:00,
2013-09-30 21:18:00,74.9,66.1,29.87,West,281,3.5,3.5,74,0.00,CLR,,0.00,WeatherDisplay:10.37,2013-09-30 19:18:00,
2013-09-30 21:23:00,74.8,65.6,29.87,West,279,1.2,1.2,73,0.00,CLR,,0.00,WeatherDisplay:10.37,2013-09-30 19:23:00,
2013-09-30 21:28:00,74.8,65.6,29.87,West,279,1.2,1.2,73,0.00,CLR,,0.00,WeatherDisplay:10.37,2013-09-30 19:28:00,
2013-09-30 21:33:00,74.6,65.4,29.86,West,279,0.0,0.0,73,0.00,CLR,,0.00,WeatherDisplay:10.37,2013-09-30 19:33:00,
2013-09-30 21:38:00,74.5,65.7,29.87,WNW,292,1.2,1.2,74,0.00,CLR,,0.00,WeatherDisplay:10.37,2013-09-30 19:38:00,
2013-09-30 21:43:00,74.2,65.4,29.87,NE,38,0.0,0.7,74,0.00,CLR,,0.00,WeatherDisplay:10.37,2013-09-30 19:43:00,
2013-09-30 21:48:00,74.0,65.6,29.88,NE,38,0.0,0.0,75,0.00,CLR,,0.00,WeatherDisplay:10.37,2013-09-30 19:48:00,
2013-09-30 21:53:00,73.6,65.6,29.88,NE,43,1.2,0.0,76,0.00,CLR,,0.00,WeatherDisplay:10.37,2013-09-30 19:53:00,
2013-09-30 21:58:00,73.2,65.2,29.88,SE,136,3.5,3.5,76,0.00,CLR,,0.00,WeatherDisplay:10.37,2013-09-30 19:58:00,
2013-09-30 22:03:00,73.2,65.6,29.88,SSE,147,2.3,2.3,77,0.00,CLR,,0.00,WeatherDisplay:10.37,2013-09-30 20:03:00,
2013-09-30 22:08:00,73.3,65.7,29.88,SSE,147,1.2,1.2,77,0.00,CLR,,0.00,WeatherDisplay:10.37,2013-09-30 20:08:00,
2013-09-30 22:13:00,73.4,65.4,29.88,SE,146,1.2,0.0,76,0.00,CLR,,0.00,WeatherDisplay:10.37,2013-09-30 20:13:00,
2013-09-30 22:18:00,73.5,65.5,29.88,SE,146,0.0,0.0,76,0.00,CLR,,0.00,WeatherDisplay:10.37,2013-09-30 20:18:00,
2013-09-30 22:23:00,73.5,65.5,29.88,SE,144,1.2,1.2,76,0.00,CLR,,0.00,WeatherDisplay:10.37,2013-09-30 20:23:00,
2013-09-30 22:28:00,73.5,65.5,29.88,SE,140,0.0,0.1,76,0.00,CLR,,0.00,WeatherDisplay:10.37,2013-09-30 20:28:00,
2013-09-30 22:33:00,73.4,65.4,29.88,ESE,115,1.2,1.2,76,0.00,CLR,,0.00,WeatherDisplay:10.37,2013-09-30 20:33:00,
2013-09-30 22:38:00,73.3,65.7,29.88,East,88,1.2,1.2,77,0.00,CLR,,0.00,WeatherDisplay:10.37,2013-09-30 20:38:00,
2013-09-30 22:43:00,73.1,65.5,29.88,East,90,2.3,2.3,77,0.00,CLR,,0.00,WeatherDisplay:10.37,2013-09-30 20:43:00,
2013-09-30 22:48:00,73.0,65.4,29.88,East,91,0.0,0.0,77,0.00,CLR,,0.00,WeatherDisplay:10.37,2013-09-30 20:48:00,
2013-09-30 22:53:00,72.9,65.3,29.87,East,91,0.0,0.0,77,0.00,CLR,,0.00,WeatherDisplay:10.37,2013-09-30 20:53:00,
2013-09-30 22:58:00,72.7,65.4,29.87,East,91,1.2,1.2,78,0.00,CLR,,0.00,WeatherDisplay:10.37,2013-09-30 20:58:00,
2013-09-30 23:03:00,72.5,65.2,29.87,East,91,0.0,0.0,78,0.00,CLR,,0.00,WeatherDisplay:10.37,2013-09-30 21:03:00,
2013-09-30 23:08:00,72.4,65.2,29.87,East,91,1.2,0.0,78,0.00,CLR,,0.00,WeatherDisplay:10.37,2013-09-30 21:08:00,
2013-09-30 23:13:00,72.4,65.5,29.87,ESE,103,1.2,1.2,79,0.00,CLR,,0.00,WeatherDisplay:10.37,2013-09-30 21:13:00,
2013-09-30 23:18:00,72.4,65.5,29.87,ESE,103,0.0,0.0,79,0.00,CLR,,0.00,WeatherDisplay:10.37,2013-09-30 21:18:00,
2013-09-30 23:23:00,72.6,65.7,29.87,SSE,155,2.3,2.3,79,0.00,CLR,,0.00,WeatherDisplay:10.37,2013-09-30 21:23:00,
2013-09-30 23:28:00,72.5,65.2,29.87,SSE,155,0.0,0.0,78,0.00,CLR,,0.00,WeatherDisplay:10.37,2013-09-30 21:28:00,
2013-09-30 23:33:00,72.4,65.5,29.87,SSE,155,0.0,0.0,79,0.00,CLR,,0.00,WeatherDisplay:10.37,2013-09-30 21:33:00,
2013-09-30 23:38:00,72.2,65.3,29.87,ESE,110,2.0,2.0,79,0.00,CLR,,0.00,WeatherDisplay:10.37,2013-09-30 21:38:00,
2013-09-30 23:43:00,71.9,65.0,29.88,NNE,24,3.5,3.5,79,0.00,CLR,,0.00,WeatherDisplay:10.37,2013-09-30 21:43:00,
2013-09-30 23:48:00,71.7,64.8,29.88,NNE,24,0.0,0.0,79,0.00,CLR,,0.00,WeatherDisplay:10.37,2013-09-30 21:48:00,
2013-09-30 23:53:00,71.5,65.0,29.88,North,5,3.5,3.5,80,0.00,CLR,,0.00,WeatherDisplay:10.37,2013-09-30 21:53:00,
2013-09-30 23:58:00,71.5,65.0,29.88,North,5,0.0,0.0,80,0.00,CLR,,0.00,WeatherDisplay:10.37,2013-09-30 21:58:00,